sensor_id;sensor_type;location;lat;lon;timestamp;P1;durP1;ratioP1;P2;durP2;ratioP2
31402;SDS011;18039;52.188;21.024;2022-12-04T00:00:27;79.72;;;22.83;;
31402;SDS011;18039;52.188;21.024;2022-12-04T00:03:14;71.30;;;21.10;;
31402;SDS011;18039;52.188;21.024;2022-12-04T00:05:42;80.20;;;22.88;;
31402;SDS011;18039;52.188;21.024;2022-12-04T00:08:09;77.57;;;21.45;;
31402;SDS011;18039;52.188;21.024;2022-12-04T00:10:40;87.28;;;26.95;;
31402;SDS011;18039;52.188;21.024;2022-12-04T00:13:10;69.90;;;24.15;;
31402;SDS011;18039;52.188;21.024;2022-12-04T00:15:40;78.60;;;24.00;;
31402;SDS011;18039;52.188;21.024;2022-12-04T00:18:08;78.28;;;23.50;;
31402;SDS011;18039;52.188;21.024;2022-12-04T00:20:37;67.28;;;21.83;;
31402;SDS011;18039;52.188;21.024;2022-12-04T00:23:06;84.05;;;26.48;;
31402;SDS011;18039;52.188;21.024;2022-12-04T00:25:33;85.40;;;26.45;;
31402;SDS011;18039;52.188;21.024;2022-12-04T00:28:07;76.78;;;25.17;;
31402;SDS011;18039;52.188;21.024;2022-12-04T00:30:34;77.22;;;23.63;;
31402;SDS011;18039;52.188;21.024;2022-12-04T00:33:06;78.40;;;24.42;;
31402;SDS011;18039;52.188;21.024;2022-12-04T00:35:32;77.93;;;23.83;;
31402;SDS011;18039;52.188;21.024;2022-12-04T00:38:00;77.07;;;23.83;;
31402;SDS011;18039;52.188;21.024;2022-12-04T00:40:26;76.05;;;23.05;;
31402;SDS011;18039;52.188;21.024;2022-12-04T00:42:54;68.47;;;19.85;;
31402;SDS011;18039;52.188;21.024;2022-12-04T00:45:21;58.70;;;19.35;;
31402;SDS011;18039;52.188;21.024;2022-12-04T00:47:48;82.35;;;24.95;;
31402;SDS011;18039;52.188;21.024;2022-12-04T00:50:15;73.68;;;20.55;;
31402;SDS011;18039;52.188;21.024;2022-12-04T00:52:42;82.03;;;25.52;;
31402;SDS011;18039;52.188;21.024;2022-12-04T00:55:09;72.32;;;23.77;;
31402;SDS011;18039;52.188;21.024;2022-12-04T00:57:37;73.45;;;24.10;;
31402;SDS011;18039;52.188;21.024;2022-12-04T01:00:05;75.82;;;23.05;;
31402;SDS011;18039;52.188;21.024;2022-12-04T01:02:33;70.13;;;22.08;;
31402;SDS011;18039;52.188;21.024;2022-12-04T01:05:00;78.22;;;24.42;;
31402;SDS011;18039;52.188;21.024;2022-12-04T01:07:28;77.43;;;25.63;;
31402;SDS011;18039;52.188;21.024;2022-12-04T01:09:55;72.93;;;23.17;;
31402;SDS011;18039;52.188;21.024;2022-12-04T01:12:23;75.93;;;24.42;;
31402;SDS011;18039;52.188;21.024;2022-12-04T01:14:50;76.68;;;25.27;;
31402;SDS011;18039;52.188;21.024;2022-12-04T01:17:17;78.35;;;23.50;;
31402;SDS011;18039;52.188;21.024;2022-12-04T01:19:44;78.88;;;24.05;;
31402;SDS011;18039;52.188;21.024;2022-12-04T01:22:11;77.47;;;23.13;;
31402;SDS011;18039;52.188;21.024;2022-12-04T01:24:38;64.30;;;19.42;;
31402;SDS011;18039;52.188;21.024;2022-12-04T01:27:06;65.75;;;20.00;;
31402;SDS011;18039;52.188;21.024;2022-12-04T01:29:33;80.07;;;25.58;;
31402;SDS011;18039;52.188;21.024;2022-12-04T01:32:00;84.45;;;26.08;;
31402;SDS011;18039;52.188;21.024;2022-12-04T01:34:27;70.90;;;23.33;;
31402;SDS011;18039;52.188;21.024;2022-12-04T01:36:54;75.82;;;23.13;;
31402;SDS011;18039;52.188;21.024;2022-12-04T01:39:21;68.25;;;20.83;;
31402;SDS011;18039;52.188;21.024;2022-12-04T01:41:49;70.38;;;24.17;;
31402;SDS011;18039;52.188;21.024;2022-12-04T01:44:17;67.43;;;21.55;;
31402;SDS011;18039;52.188;21.024;2022-12-04T01:46:50;79.15;;;24.35;;
31402;SDS011;18039;52.188;21.024;2022-12-04T01:49:20;79.45;;;23.52;;
31402;SDS011;18039;52.188;21.024;2022-12-04T01:51:54;71.78;;;23.92;;
31402;SDS011;18039;52.188;21.024;2022-12-04T01:54:26;61.88;;;18.92;;
31402;SDS011;18039;52.188;21.024;2022-12-04T01:57:12;79.72;;;23.38;;
31402;SDS011;18039;52.188;21.024;2022-12-04T01:59:49;79.60;;;26.48;;
31402;SDS011;18039;52.188;21.024;2022-12-04T02:02:23;69.40;;;21.75;;
31402;SDS011;18039;52.188;21.024;2022-12-04T02:04:55;44.42;;;16.00;;
31402;SDS011;18039;52.188;21.024;2022-12-04T02:07:23;72.45;;;24.40;;
31402;SDS011;18039;52.188;21.024;2022-12-04T02:09:50;38.65;;;11.65;;
31402;SDS011;18039;52.188;21.024;2022-12-04T02:12:23;59.92;;;20.38;;
31402;SDS011;18039;52.188;21.024;2022-12-04T02:30:59;70.90;;;22.48;;
31402;SDS011;18039;52.188;21.024;2022-12-04T02:33:30;73.78;;;23.40;;
31402;SDS011;18039;52.188;21.024;2022-12-04T02:36:06;77.32;;;24.63;;
31402;SDS011;18039;52.188;21.024;2022-12-04T02:42:27;80.40;;;24.02;;
31402;SDS011;18039;52.188;21.024;2022-12-04T02:44:38;74.03;;;21.70;;
31402;SDS011;18039;52.188;21.024;2022-12-04T02:47:11;53.53;;;18.73;;
31402;SDS011;18039;52.188;21.024;2022-12-04T02:49:42;70.43;;;23.08;;
31402;SDS011;18039;52.188;21.024;2022-12-04T02:52:12;62.88;;;21.25;;
31402;SDS011;18039;52.188;21.024;2022-12-04T02:54:45;55.92;;;17.98;;
31402;SDS011;18039;52.188;21.024;2022-12-04T02:57:23;62.97;;;21.08;;
31402;SDS011;18039;52.188;21.024;2022-12-04T02:59:55;71.78;;;21.85;;
31402;SDS011;18039;52.188;21.024;2022-12-04T03:02:31;70.20;;;22.40;;
31402;SDS011;18039;52.188;21.024;2022-12-04T03:05:05;64.20;;;20.60;;
31402;SDS011;18039;52.188;21.024;2022-12-04T03:07:56;79.15;;;22.55;;
31402;SDS011;18039;52.188;21.024;2022-12-04T03:10:27;74.25;;;21.88;;
31402;SDS011;18039;52.188;21.024;2022-12-04T03:15:36;72.50;;;22.20;;
31402;SDS011;18039;52.188;21.024;2022-12-04T03:18:09;68.45;;;21.02;;
31402;SDS011;18039;52.188;21.024;2022-12-04T03:20:42;66.78;;;22.58;;
31402;SDS011;18039;52.188;21.024;2022-12-04T03:23:14;75.05;;;23.10;;
31402;SDS011;18039;52.188;21.024;2022-12-04T03:25:55;77.18;;;21.42;;
31402;SDS011;18039;52.188;21.024;2022-12-04T03:28:56;75.35;;;23.27;;
31402;SDS011;18039;52.188;21.024;2022-12-04T03:31:30;69.57;;;20.45;;
31402;SDS011;18039;52.188;21.024;2022-12-04T03:34:06;61.97;;;18.60;;
31402;SDS011;18039;52.188;21.024;2022-12-04T03:36:36;62.70;;;21.30;;
31402;SDS011;18039;52.188;21.024;2022-12-04T03:39:18;68.35;;;20.63;;
31402;SDS011;18039;52.188;21.024;2022-12-04T03:41:58;61.72;;;18.35;;
31402;SDS011;18039;52.188;21.024;2022-12-04T03:44:37;71.72;;;22.70;;
31402;SDS011;18039;52.188;21.024;2022-12-04T03:47:11;69.20;;;18.83;;
31402;SDS011;18039;52.188;21.024;2022-12-04T03:49:52;66.47;;;21.67;;
31402;SDS011;18039;52.188;21.024;2022-12-04T03:54:56;58.15;;;19.15;;
31402;SDS011;18039;52.188;21.024;2022-12-04T03:57:31;67.53;;;22.08;;
31402;SDS011;18039;52.188;21.024;2022-12-04T04:00:12;66.25;;;21.17;;
31402;SDS011;18039;52.188;21.024;2022-12-04T04:05:19;54.20;;;17.17;;
31402;SDS011;18039;52.188;21.024;2022-12-04T04:07:49;47.58;;;17.02;;
31402;SDS011;18039;52.188;21.024;2022-12-04T04:10:22;61.88;;;21.92;;
31402;SDS011;18039;52.188;21.024;2022-12-04T04:13:01;54.63;;;17.58;;
31402;SDS011;18039;52.188;21.024;2022-12-04T04:15:49;45.80;;;15.68;;
31402;SDS011;18039;52.188;21.024;2022-12-04T04:21:28;38.03;;;14.27;;
31402;SDS011;18039;52.188;21.024;2022-12-04T04:27:05;48.20;;;18.05;;
31402;SDS011;18039;52.188;21.024;2022-12-04T04:29:33;44.90;;;13.98;;
31402;SDS011;18039;52.188;21.024;2022-12-04T04:32:03;50.53;;;18.15;;
31402;SDS011;18039;52.188;21.024;2022-12-04T04:34:37;38.83;;;13.55;;
31402;SDS011;18039;52.188;21.024;2022-12-04T04:37:08;52.72;;;17.98;;
31402;SDS011;18039;52.188;21.024;2022-12-04T04:42:42;47.97;;;15.88;;
31402;SDS011;18039;52.188;21.024;2022-12-04T04:47:47;41.72;;;14.98;;
31402;SDS011;18039;52.188;21.024;2022-12-04T04:50:19;52.25;;;15.73;;
31402;SDS011;18039;52.188;21.024;2022-12-04T04:52:49;38.50;;;15.25;;
31402;SDS011;18039;52.188;21.024;2022-12-04T04:55:20;47.47;;;16.80;;
31402;SDS011;18039;52.188;21.024;2022-12-04T04:57:49;48.85;;;17.15;;
31402;SDS011;18039;52.188;21.024;2022-12-04T05:00:18;53.65;;;18.73;;
31402;SDS011;18039;52.188;21.024;2022-12-04T05:02:47;55.38;;;18.05;;
31402;SDS011;18039;52.188;21.024;2022-12-04T05:05:16;53.63;;;18.58;;
31402;SDS011;18039;52.188;21.024;2022-12-04T05:07:43;50.35;;;18.35;;
31402;SDS011;18039;52.188;21.024;2022-12-04T05:10:10;61.33;;;19.85;;
31402;SDS011;18039;52.188;21.024;2022-12-04T05:12:37;56.38;;;18.17;;
31402;SDS011;18039;52.188;21.024;2022-12-04T05:15:05;44.33;;;15.48;;
31402;SDS011;18039;52.188;21.024;2022-12-04T05:17:33;61.47;;;18.17;;
31402;SDS011;18039;52.188;21.024;2022-12-04T05:20:04;58.78;;;18.88;;
31402;SDS011;18039;52.188;21.024;2022-12-04T05:22:32;61.33;;;19.83;;
31402;SDS011;18039;52.188;21.024;2022-12-04T05:25:02;69.50;;;21.08;;
31402;SDS011;18039;52.188;21.024;2022-12-04T05:27:30;65.97;;;22.30;;
31402;SDS011;18039;52.188;21.024;2022-12-04T05:29:58;61.00;;;21.05;;
31402;SDS011;18039;52.188;21.024;2022-12-04T05:32:26;32.38;;;11.43;;
31402;SDS011;18039;52.188;21.024;2022-12-04T05:34:54;59.28;;;19.83;;
31402;SDS011;18039;52.188;21.024;2022-12-04T05:37:22;72.88;;;21.20;;
31402;SDS011;18039;52.188;21.024;2022-12-04T05:39:50;58.22;;;18.27;;
31402;SDS011;18039;52.188;21.024;2022-12-04T05:42:17;72.07;;;22.50;;
31402;SDS011;18039;52.188;21.024;2022-12-04T05:44:44;49.45;;;16.00;;
31402;SDS011;18039;52.188;21.024;2022-12-04T05:47:11;47.47;;;16.63;;
31402;SDS011;18039;52.188;21.024;2022-12-04T05:49:38;52.00;;;18.38;;
31402;SDS011;18039;52.188;21.024;2022-12-04T05:52:05;64.90;;;19.67;;
31402;SDS011;18039;52.188;21.024;2022-12-04T05:54:32;51.33;;;18.10;;
31402;SDS011;18039;52.188;21.024;2022-12-04T05:56:59;63.60;;;20.15;;
31402;SDS011;18039;52.188;21.024;2022-12-04T05:59:26;57.28;;;19.40;;
31402;SDS011;18039;52.188;21.024;2022-12-04T06:01:53;61.17;;;18.40;;
31402;SDS011;18039;52.188;21.024;2022-12-04T06:04:21;43.50;;;14.50;;
31402;SDS011;18039;52.188;21.024;2022-12-04T06:06:48;50.88;;;17.35;;
31402;SDS011;18039;52.188;21.024;2022-12-04T06:09:15;60.47;;;20.13;;
31402;SDS011;18039;52.188;21.024;2022-12-04T06:11:42;45.78;;;14.98;;
31402;SDS011;18039;52.188;21.024;2022-12-04T06:14:11;49.58;;;19.00;;
31402;SDS011;18039;52.188;21.024;2022-12-04T06:16:41;47.22;;;17.05;;
31402;SDS011;18039;52.188;21.024;2022-12-04T06:19:17;55.25;;;19.15;;
31402;SDS011;18039;52.188;21.024;2022-12-04T06:21:45;54.25;;;16.77;;
31402;SDS011;18039;52.188;21.024;2022-12-04T06:24:19;40.50;;;14.85;;
31402;SDS011;18039;52.188;21.024;2022-12-04T06:26:49;45.90;;;16.35;;
31402;SDS011;18039;52.188;21.024;2022-12-04T06:29:36;52.05;;;19.50;;
31402;SDS011;18039;52.188;21.024;2022-12-04T06:32:03;44.70;;;14.13;;
31402;SDS011;18039;52.188;21.024;2022-12-04T06:34:31;48.15;;;18.25;;
31402;SDS011;18039;52.188;21.024;2022-12-04T06:36:58;51.35;;;15.70;;
31402;SDS011;18039;52.188;21.024;2022-12-04T06:39:25;56.50;;;17.50;;
31402;SDS011;18039;52.188;21.024;2022-12-04T06:41:52;50.75;;;18.48;;
31402;SDS011;18039;52.188;21.024;2022-12-04T06:44:19;51.97;;;18.30;;
31402;SDS011;18039;52.188;21.024;2022-12-04T06:46:47;58.00;;;19.70;;
31402;SDS011;18039;52.188;21.024;2022-12-04T06:49:16;51.85;;;19.90;;
31402;SDS011;18039;52.188;21.024;2022-12-04T06:51:43;57.63;;;18.80;;
31402;SDS011;18039;52.188;21.024;2022-12-04T06:54:10;57.67;;;18.02;;
31402;SDS011;18039;52.188;21.024;2022-12-04T06:56:37;58.33;;;17.77;;
31402;SDS011;18039;52.188;21.024;2022-12-04T06:59:04;58.83;;;19.33;;
31402;SDS011;18039;52.188;21.024;2022-12-04T07:01:32;48.53;;;19.00;;
31402;SDS011;18039;52.188;21.024;2022-12-04T07:04:01;34.20;;;10.40;;
31402;SDS011;18039;52.188;21.024;2022-12-04T07:06:31;58.42;;;20.08;;
31402;SDS011;18039;52.188;21.024;2022-12-04T07:09:09;30.30;;;11.50;;
31402;SDS011;18039;52.188;21.024;2022-12-04T07:11:39;54.53;;;18.25;;
31402;SDS011;18039;52.188;21.024;2022-12-04T07:14:07;53.28;;;19.65;;
31402;SDS011;18039;52.188;21.024;2022-12-04T07:16:35;54.25;;;19.20;;
31402;SDS011;18039;52.188;21.024;2022-12-04T07:19:08;48.53;;;18.60;;
31402;SDS011;18039;52.188;21.024;2022-12-04T07:21:36;42.75;;;15.63;;
31402;SDS011;18039;52.188;21.024;2022-12-04T07:24:03;42.55;;;15.50;;
31402;SDS011;18039;52.188;21.024;2022-12-04T07:26:30;50.05;;;19.40;;
31402;SDS011;18039;52.188;21.024;2022-12-04T07:28:58;52.40;;;19.17;;
31402;SDS011;18039;52.188;21.024;2022-12-04T07:31:25;46.53;;;17.50;;
31402;SDS011;18039;52.188;21.024;2022-12-04T07:33:55;36.70;;;14.07;;
31402;SDS011;18039;52.188;21.024;2022-12-04T07:36:24;47.10;;;18.70;;
31402;SDS011;18039;52.188;21.024;2022-12-04T07:38:53;45.55;;;15.40;;
31402;SDS011;18039;52.188;21.024;2022-12-04T07:41:20;31.35;;;13.90;;
31402;SDS011;18039;52.188;21.024;2022-12-04T07:43:48;42.08;;;14.35;;
31402;SDS011;18039;52.188;21.024;2022-12-04T07:46:16;40.42;;;16.38;;
31402;SDS011;18039;52.188;21.024;2022-12-04T07:48:45;43.33;;;18.42;;
31402;SDS011;18039;52.188;21.024;2022-12-04T07:51:20;43.53;;;17.10;;
31402;SDS011;18039;52.188;21.024;2022-12-04T07:53:48;47.67;;;17.15;;
31402;SDS011;18039;52.188;21.024;2022-12-04T07:56:16;38.33;;;14.00;;
31402;SDS011;18039;52.188;21.024;2022-12-04T07:58:44;34.13;;;13.63;;
31402;SDS011;18039;52.188;21.024;2022-12-04T08:03:39;39.58;;;16.58;;
31402;SDS011;18039;52.188;21.024;2022-12-04T08:06:13;41.00;;;16.02;;
31402;SDS011;18039;52.188;21.024;2022-12-04T08:08:42;42.88;;;17.85;;
31402;SDS011;18039;52.188;21.024;2022-12-04T08:11:10;47.53;;;17.58;;
31402;SDS011;18039;52.188;21.024;2022-12-04T08:13:39;45.72;;;16.63;;
31402;SDS011;18039;52.188;21.024;2022-12-04T08:16:06;33.53;;;13.32;;
31402;SDS011;18039;52.188;21.024;2022-12-04T08:18:35;44.15;;;16.23;;
31402;SDS011;18039;52.188;21.024;2022-12-04T08:21:09;45.20;;;17.70;;
31402;SDS011;18039;52.188;21.024;2022-12-04T08:23:38;47.33;;;17.92;;
31402;SDS011;18039;52.188;21.024;2022-12-04T08:26:07;36.97;;;13.85;;
31402;SDS011;18039;52.188;21.024;2022-12-04T08:28:36;48.20;;;17.33;;
31402;SDS011;18039;52.188;21.024;2022-12-04T08:31:10;39.25;;;15.75;;
31402;SDS011;18039;52.188;21.024;2022-12-04T08:33:40;45.33;;;16.10;;
31402;SDS011;18039;52.188;21.024;2022-12-04T08:36:09;44.30;;;15.35;;
31402;SDS011;18039;52.188;21.024;2022-12-04T08:38:38;40.00;;;15.48;;
31402;SDS011;18039;52.188;21.024;2022-12-04T08:41:06;34.53;;;12.05;;
31402;SDS011;18039;52.188;21.024;2022-12-04T08:43:36;40.42;;;16.13;;
31402;SDS011;18039;52.188;21.024;2022-12-04T08:46:05;41.00;;;17.23;;
31402;SDS011;18039;52.188;21.024;2022-12-04T08:48:34;38.15;;;15.98;;
31402;SDS011;18039;52.188;21.024;2022-12-04T08:51:01;33.92;;;13.32;;
31402;SDS011;18039;52.188;21.024;2022-12-04T08:53:30;33.88;;;14.13;;
31402;SDS011;18039;52.188;21.024;2022-12-04T08:55:59;39.90;;;15.48;;
31402;SDS011;18039;52.188;21.024;2022-12-04T08:58:27;32.92;;;14.25;;
31402;SDS011;18039;52.188;21.024;2022-12-04T09:00:54;45.15;;;15.82;;
31402;SDS011;18039;52.188;21.024;2022-12-04T09:03:21;30.60;;;12.60;;
31402;SDS011;18039;52.188;21.024;2022-12-04T09:05:59;38.67;;;15.35;;
31402;SDS011;18039;52.188;21.024;2022-12-04T09:08:28;33.78;;;14.32;;
31402;SDS011;18039;52.188;21.024;2022-12-04T09:11:00;29.83;;;11.93;;
31402;SDS011;18039;52.188;21.024;2022-12-04T09:13:29;41.00;;;17.13;;
31402;SDS011;18039;52.188;21.024;2022-12-04T09:15:56;41.40;;;16.48;;
31402;SDS011;18039;52.188;21.024;2022-12-04T09:18:23;48.30;;;17.23;;
31402;SDS011;18039;52.188;21.024;2022-12-04T09:20:54;38.05;;;16.45;;
31402;SDS011;18039;52.188;21.024;2022-12-04T09:23:23;37.05;;;14.20;;
31402;SDS011;18039;52.188;21.024;2022-12-04T09:25:51;37.88;;;16.40;;
31402;SDS011;18039;52.188;21.024;2022-12-04T09:28:19;47.38;;;18.20;;
31402;SDS011;18039;52.188;21.024;2022-12-04T09:31:03;36.55;;;13.70;;
31402;SDS011;18039;52.188;21.024;2022-12-04T09:33:31;38.20;;;15.32;;
31402;SDS011;18039;52.188;21.024;2022-12-04T09:35:59;33.15;;;14.98;;
31402;SDS011;18039;52.188;21.024;2022-12-04T09:38:27;28.90;;;11.27;;
31402;SDS011;18039;52.188;21.024;2022-12-04T09:44:09;38.63;;;16.30;;
31402;SDS011;18039;52.188;21.024;2022-12-04T09:46:46;28.55;;;11.07;;
31402;SDS011;18039;52.188;21.024;2022-12-04T09:49:22;43.50;;;16.20;;
31402;SDS011;18039;52.188;21.024;2022-12-04T09:51:53;40.15;;;16.50;;
31402;SDS011;18039;52.188;21.024;2022-12-04T09:54:25;40.92;;;17.55;;
31402;SDS011;18039;52.188;21.024;2022-12-04T09:56:59;24.02;;;10.48;;
31402;SDS011;18039;52.188;21.024;2022-12-04T09:59:31;36.10;;;15.73;;
31402;SDS011;18039;52.188;21.024;2022-12-04T10:04:35;36.03;;;13.18;;
31402;SDS011;18039;52.188;21.024;2022-12-04T10:07:19;26.75;;;12.60;;
31402;SDS011;18039;52.188;21.024;2022-12-04T10:09:56;40.70;;;16.35;;
31402;SDS011;18039;52.188;21.024;2022-12-04T10:15:11;43.90;;;15.23;;
31402;SDS011;18039;52.188;21.024;2022-12-04T10:17:50;41.92;;;17.42;;
31402;SDS011;18039;52.188;21.024;2022-12-04T10:23:13;33.17;;;13.70;;
31402;SDS011;18039;52.188;21.024;2022-12-04T10:25:59;26.25;;;9.20;;
31402;SDS011;18039;52.188;21.024;2022-12-04T10:28:30;27.70;;;13.50;;
31402;SDS011;18039;52.188;21.024;2022-12-04T10:31:02;41.67;;;18.42;;
31402;SDS011;18039;52.188;21.024;2022-12-04T10:36:02;40.55;;;18.15;;
31402;SDS011;18039;52.188;21.024;2022-12-04T10:38:41;35.85;;;15.75;;
31402;SDS011;18039;52.188;21.024;2022-12-04T10:44:00;44.58;;;17.50;;
31402;SDS011;18039;52.188;21.024;2022-12-04T10:46:28;38.78;;;17.70;;
31402;SDS011;18039;52.188;21.024;2022-12-04T10:48:59;34.83;;;17.13;;
31402;SDS011;18039;52.188;21.024;2022-12-04T10:51:53;40.10;;;18.33;;
31402;SDS011;18039;52.188;21.024;2022-12-04T10:54:26;36.47;;;14.88;;
31402;SDS011;18039;52.188;21.024;2022-12-04T10:57:03;35.88;;;14.43;;
31402;SDS011;18039;52.188;21.024;2022-12-04T10:59:32;40.25;;;18.00;;
31402;SDS011;18039;52.188;21.024;2022-12-04T11:05:02;45.80;;;19.63;;
31402;SDS011;18039;52.188;21.024;2022-12-04T11:07:33;38.38;;;18.23;;
31402;SDS011;18039;52.188;21.024;2022-12-04T11:10:05;41.13;;;18.27;;
31402;SDS011;18039;52.188;21.024;2022-12-04T11:12:54;37.60;;;16.10;;
31402;SDS011;18039;52.188;21.024;2022-12-04T11:15:25;45.47;;;17.33;;
31402;SDS011;18039;52.188;21.024;2022-12-04T11:17:54;35.17;;;14.60;;
31402;SDS011;18039;52.188;21.024;2022-12-04T11:20:23;32.90;;;14.32;;
31402;SDS011;18039;52.188;21.024;2022-12-04T11:22:53;37.90;;;15.88;;
31402;SDS011;18039;52.188;21.024;2022-12-04T11:25:33;33.60;;;13.95;;
31402;SDS011;18039;52.188;21.024;2022-12-04T11:28:11;32.90;;;14.68;;
31402;SDS011;18039;52.188;21.024;2022-12-04T11:31:03;32.63;;;15.32;;
31402;SDS011;18039;52.188;21.024;2022-12-04T11:33:32;34.67;;;14.63;;
31402;SDS011;18039;52.188;21.024;2022-12-04T11:36:16;38.40;;;13.80;;
31402;SDS011;18039;52.188;21.024;2022-12-04T11:38:50;31.00;;;15.07;;
31402;SDS011;18039;52.188;21.024;2022-12-04T11:41:27;26.13;;;11.05;;
31402;SDS011;18039;52.188;21.024;2022-12-04T11:43:56;31.73;;;14.57;;
31402;SDS011;18039;52.188;21.024;2022-12-04T11:46:30;32.13;;;13.00;;
31402;SDS011;18039;52.188;21.024;2022-12-04T11:49:00;33.75;;;15.27;;
31402;SDS011;18039;52.188;21.024;2022-12-04T11:54:38;27.02;;;13.38;;
31402;SDS011;18039;52.188;21.024;2022-12-04T12:00:11;37.65;;;16.60;;
31402;SDS011;18039;52.188;21.024;2022-12-04T12:02:43;33.47;;;13.43;;
31402;SDS011;18039;52.188;21.024;2022-12-04T12:05:56;37.08;;;16.40;;
31402;SDS011;18039;52.188;21.024;2022-12-04T12:11:07;25.15;;;10.75;;
31402;SDS011;18039;52.188;21.024;2022-12-04T12:20:06;36.05;;;16.98;;
31402;SDS011;18039;52.188;21.024;2022-12-04T12:34:23;31.98;;;14.25;;
31402;SDS011;18039;52.188;21.024;2022-12-04T12:37:08;34.28;;;15.63;;
31402;SDS011;18039;52.188;21.024;2022-12-04T12:39:47;38.10;;;16.20;;
31402;SDS011;18039;52.188;21.024;2022-12-04T12:42:39;37.83;;;17.35;;
31402;SDS011;18039;52.188;21.024;2022-12-04T12:45:43;35.50;;;14.43;;
31402;SDS011;18039;52.188;21.024;2022-12-04T12:50:52;37.42;;;16.10;;
31402;SDS011;18039;52.188;21.024;2022-12-04T12:54:11;37.75;;;17.67;;
31402;SDS011;18039;52.188;21.024;2022-12-04T12:56:48;35.60;;;16.45;;
31402;SDS011;18039;52.188;21.024;2022-12-04T12:59:20;29.08;;;12.85;;
31402;SDS011;18039;52.188;21.024;2022-12-04T13:01:53;35.97;;;15.60;;
31402;SDS011;18039;52.188;21.024;2022-12-04T13:04:39;36.72;;;18.15;;
31402;SDS011;18039;52.188;21.024;2022-12-04T13:10:22;31.52;;;14.73;;
31402;SDS011;18039;52.188;21.024;2022-12-04T13:13:14;27.90;;;13.70;;
31402;SDS011;18039;52.188;21.024;2022-12-04T13:18:22;36.30;;;16.87;;
31402;SDS011;18039;52.188;21.024;2022-12-04T13:20:51;38.20;;;15.80;;
31402;SDS011;18039;52.188;21.024;2022-12-04T13:37:47;39.25;;;17.63;;
31402;SDS011;18039;52.188;21.024;2022-12-04T13:40:37;41.78;;;18.42;;
31402;SDS011;18039;52.188;21.024;2022-12-04T13:43:17;43.08;;;19.80;;
31402;SDS011;18039;52.188;21.024;2022-12-04T13:45:48;35.92;;;14.90;;
31402;SDS011;18039;52.188;21.024;2022-12-04T13:53:41;35.28;;;14.85;;
31402;SDS011;18039;52.188;21.024;2022-12-04T13:56:25;36.97;;;15.27;;
31402;SDS011;18039;52.188;21.024;2022-12-04T13:59:01;34.78;;;15.23;;
31402;SDS011;18039;52.188;21.024;2022-12-04T14:01:45;36.88;;;15.57;;
31402;SDS011;18039;52.188;21.024;2022-12-04T14:10:02;28.77;;;14.52;;
31402;SDS011;18039;52.188;21.024;2022-12-04T14:12:36;35.95;;;16.98;;
31402;SDS011;18039;52.188;21.024;2022-12-04T14:15:20;36.38;;;16.10;;
31402;SDS011;18039;52.188;21.024;2022-12-04T14:17:56;36.55;;;16.10;;
31402;SDS011;18039;52.188;21.024;2022-12-04T14:20:28;36.60;;;15.25;;
31402;SDS011;18039;52.188;21.024;2022-12-04T14:23:22;35.25;;;14.75;;
31402;SDS011;18039;52.188;21.024;2022-12-04T14:25:53;21.10;;;10.40;;
31402;SDS011;18039;52.188;21.024;2022-12-04T14:33:37;21.73;;;10.10;;
31402;SDS011;18039;52.188;21.024;2022-12-04T14:36:15;36.50;;;16.30;;
31402;SDS011;18039;52.188;21.024;2022-12-04T14:38:47;22.48;;;11.80;;
31402;SDS011;18039;52.188;21.024;2022-12-04T14:41:22;31.10;;;13.75;;
31402;SDS011;18039;52.188;21.024;2022-12-04T14:43:52;37.72;;;17.08;;
31402;SDS011;18039;52.188;21.024;2022-12-04T14:46:38;37.85;;;16.80;;
31402;SDS011;18039;52.188;21.024;2022-12-04T14:54:42;30.33;;;14.02;;
31402;SDS011;18039;52.188;21.024;2022-12-04T14:57:25;32.38;;;14.27;;
31402;SDS011;18039;52.188;21.024;2022-12-04T15:00:05;34.92;;;15.35;;
31402;SDS011;18039;52.188;21.024;2022-12-04T15:02:42;37.08;;;16.08;;
31402;SDS011;18039;52.188;21.024;2022-12-04T15:05:46;36.33;;;16.17;;
31402;SDS011;18039;52.188;21.024;2022-12-04T15:08:06;33.10;;;14.45;;
31402;SDS011;18039;52.188;21.024;2022-12-04T15:10:34;38.20;;;16.90;;
31402;SDS011;18039;52.188;21.024;2022-12-04T15:13:33;39.03;;;17.58;;
31402;SDS011;18039;52.188;21.024;2022-12-04T15:16:07;24.20;;;11.33;;
31402;SDS011;18039;52.188;21.024;2022-12-04T15:18:36;31.30;;;15.52;;
31402;SDS011;18039;52.188;21.024;2022-12-04T15:21:05;27.88;;;13.50;;
31402;SDS011;18039;52.188;21.024;2022-12-04T15:23:37;43.00;;;19.40;;
31402;SDS011;18039;52.188;21.024;2022-12-04T15:26:12;35.30;;;17.45;;
31402;SDS011;18039;52.188;21.024;2022-12-04T15:28:53;36.20;;;16.92;;
31402;SDS011;18039;52.188;21.024;2022-12-04T15:33:58;35.08;;;16.05;;
31402;SDS011;18039;52.188;21.024;2022-12-04T15:39:22;30.42;;;13.93;;
31402;SDS011;18039;52.188;21.024;2022-12-04T15:42:02;35.25;;;16.15;;
31402;SDS011;18039;52.188;21.024;2022-12-04T15:44:50;33.85;;;14.88;;
31402;SDS011;18039;52.188;21.024;2022-12-04T15:47:20;36.25;;;14.98;;
31402;SDS011;18039;52.188;21.024;2022-12-04T15:49:50;34.65;;;16.58;;
31402;SDS011;18039;52.188;21.024;2022-12-04T15:52:20;34.20;;;14.48;;
31402;SDS011;18039;52.188;21.024;2022-12-04T15:54:53;39.97;;;16.87;;
31402;SDS011;18039;52.188;21.024;2022-12-04T16:02:49;29.50;;;12.40;;
31402;SDS011;18039;52.188;21.024;2022-12-04T16:07:49;33.78;;;13.65;;
31402;SDS011;18039;52.188;21.024;2022-12-04T16:10:30;34.17;;;16.33;;
31402;SDS011;18039;52.188;21.024;2022-12-04T16:13:01;30.80;;;14.50;;
31402;SDS011;18039;52.188;21.024;2022-12-04T16:15:37;37.95;;;15.77;;
31402;SDS011;18039;52.188;21.024;2022-12-04T16:18:08;29.40;;;13.07;;
31402;SDS011;18039;52.188;21.024;2022-12-04T16:20:38;35.85;;;15.57;;
31402;SDS011;18039;52.188;21.024;2022-12-04T16:23:06;26.05;;;13.65;;
31402;SDS011;18039;52.188;21.024;2022-12-04T16:25:35;36.65;;;17.13;;
31402;SDS011;18039;52.188;21.024;2022-12-04T16:28:02;36.45;;;17.65;;
31402;SDS011;18039;52.188;21.024;2022-12-04T16:30:30;36.70;;;16.15;;
31402;SDS011;18039;52.188;21.024;2022-12-04T16:32:59;34.20;;;16.02;;
31402;SDS011;18039;52.188;21.024;2022-12-04T16:35:27;34.45;;;15.35;;
31402;SDS011;18039;52.188;21.024;2022-12-04T16:37:57;28.48;;;13.63;;
31402;SDS011;18039;52.188;21.024;2022-12-04T16:40:24;16.95;;;9.40;;
31402;SDS011;18039;52.188;21.024;2022-12-04T16:42:51;30.08;;;15.20;;
31402;SDS011;18039;52.188;21.024;2022-12-04T16:47:48;34.38;;;17.17;;
31402;SDS011;18039;52.188;21.024;2022-12-04T16:50:15;32.72;;;16.50;;
31402;SDS011;18039;52.188;21.024;2022-12-04T16:52:42;33.60;;;15.75;;
31402;SDS011;18039;52.188;21.024;2022-12-04T16:58:06;30.35;;;14.25;;
31402;SDS011;18039;52.188;21.024;2022-12-04T17:00:33;29.65;;;13.07;;
31402;SDS011;18039;52.188;21.024;2022-12-04T17:03:02;24.85;;;10.50;;
31402;SDS011;18039;52.188;21.024;2022-12-04T17:05:30;32.67;;;14.88;;
31402;SDS011;18039;52.188;21.024;2022-12-04T17:08:01;26.02;;;10.73;;